sensor_id;sensor_type;location;lat;lon;timestamp;P1;durP1;ratioP1;P2;durP2;ratioP2
29712;SDS011;16623;53.632;10.016;2023-06-26T00:00:18;10.35;;;8.70;;
29712;SDS011;16623;53.632;10.016;2023-06-26T00:02:43;9.77;;;8.65;;
29712;SDS011;16623;53.632;10.016;2023-06-26T00:05:09;10.68;;;8.65;;
29712;SDS011;16623;53.632;10.016;2023-06-26T00:07:35;9.93;;;8.68;;
29712;SDS011;16623;53.632;10.016;2023-06-26T00:10:01;15.55;;;9.40;;
29712;SDS011;16623;53.632;10.016;2023-06-26T00:12:28;11.65;;;9.15;;
29712;SDS011;16623;53.632;10.016;2023-06-26T00:14:53;11.45;;;9.02;;
29712;SDS011;16623;53.632;10.016;2023-06-26T00:17:19;12.13;;;9.20;;
29712;SDS011;16623;53.632;10.016;2023-06-26T00:19:47;12.07;;;10.13;;
29712;SDS011;16623;53.632;10.016;2023-06-26T00:22:13;11.25;;;9.63;;
29712;SDS011;16623;53.632;10.016;2023-06-26T00:24:39;10.13;;;8.68;;
29712;SDS011;16623;53.632;10.016;2023-06-26T00:27:05;11.80;;;9.18;;
29712;SDS011;16623;53.632;10.016;2023-06-26T00:29:31;10.75;;;8.98;;
29712;SDS011;16623;53.632;10.016;2023-06-26T00:31:56;10.10;;;9.10;;
29712;SDS011;16623;53.632;10.016;2023-06-26T00:34:22;13.15;;;9.00;;
29712;SDS011;16623;53.632;10.016;2023-06-26T00:36:47;10.85;;;9.80;;
29712;SDS011;16623;53.632;10.016;2023-06-26T00:39:13;10.48;;;9.23;;
29712;SDS011;16623;53.632;10.016;2023-06-26T00:41:38;10.45;;;9.35;;
29712;SDS011;16623;53.632;10.016;2023-06-26T00:44:04;10.45;;;9.15;;
29712;SDS011;16623;53.632;10.016;2023-06-26T00:46:30;12.52;;;9.52;;
29712;SDS011;16623;53.632;10.016;2023-06-26T00:48:58;11.50;;;9.43;;
29712;SDS011;16623;53.632;10.016;2023-06-26T00:51:25;11.75;;;9.52;;
29712;SDS011;16623;53.632;10.016;2023-06-26T00:53:53;11.52;;;9.10;;
29712;SDS011;16623;53.632;10.016;2023-06-26T00:56:19;10.15;;;9.05;;
29712;SDS011;16623;53.632;10.016;2023-06-26T00:58:45;10.80;;;9.63;;
29712;SDS011;16623;53.632;10.016;2023-06-26T01:01:11;10.88;;;9.13;;
29712;SDS011;16623;53.632;10.016;2023-06-26T01:03:40;10.68;;;9.57;;
29712;SDS011;16623;53.632;10.016;2023-06-26T01:06:07;11.57;;;10.48;;
29712;SDS011;16623;53.632;10.016;2023-06-26T01:08:36;10.15;;;9.02;;
29712;SDS011;16623;53.632;10.016;2023-06-26T01:11:05;12.18;;;10.15;;
29712;SDS011;16623;53.632;10.016;2023-06-26T01:13:31;11.88;;;10.68;;
29712;SDS011;16623;53.632;10.016;2023-06-26T01:15:58;11.23;;;10.02;;
29712;SDS011;16623;53.632;10.016;2023-06-26T01:18:24;10.25;;;9.15;;
29712;SDS011;16623;53.632;10.016;2023-06-26T01:20:51;10.65;;;9.55;;
29712;SDS011;16623;53.632;10.016;2023-06-26T01:23:25;10.85;;;9.75;;
29712;SDS011;16623;53.632;10.016;2023-06-26T01:28:41;11.05;;;9.88;;
29712;SDS011;16623;53.632;10.016;2023-06-26T01:31:08;9.95;;;8.48;;
29712;SDS011;16623;53.632;10.016;2023-06-26T01:33:35;12.05;;;10.32;;
29712;SDS011;16623;53.632;10.016;2023-06-26T01:36:01;11.52;;;9.98;;
29712;SDS011;16623;53.632;10.016;2023-06-26T01:38:28;10.38;;;8.60;;
29712;SDS011;16623;53.632;10.016;2023-06-26T01:40:53;11.77;;;10.27;;
29712;SDS011;16623;53.632;10.016;2023-06-26T01:43:35;11.32;;;10.20;;
29712;SDS011;16623;53.632;10.016;2023-06-26T01:54:52;11.82;;;10.40;;
29712;SDS011;16623;53.632;10.016;2023-06-26T01:57:21;10.43;;;9.32;;
29712;SDS011;16623;53.632;10.016;2023-06-26T01:59:48;11.02;;;9.88;;
29712;SDS011;16623;53.632;10.016;2023-06-26T02:02:14;11.23;;;9.98;;
29712;SDS011;16623;53.632;10.016;2023-06-26T02:04:39;11.02;;;9.70;;
29712;SDS011;16623;53.632;10.016;2023-06-26T02:07:05;13.05;;;10.98;;
29712;SDS011;16623;53.632;10.016;2023-06-26T02:09:31;10.38;;;9.00;;
29712;SDS011;16623;53.632;10.016;2023-06-26T02:11:57;11.77;;;9.60;;
29712;SDS011;16623;53.632;10.016;2023-06-26T02:14:22;11.13;;;10.02;;
29712;SDS011;16623;53.632;10.016;2023-06-26T02:16:48;11.05;;;9.88;;
29712;SDS011;16623;53.632;10.016;2023-06-26T02:19:14;11.25;;;9.30;;
29712;SDS011;16623;53.632;10.016;2023-06-26T02:21:46;11.43;;;10.23;;
29712;SDS011;16623;53.632;10.016;2023-06-26T02:24:13;11.40;;;9.77;;
29712;SDS011;16623;53.632;10.016;2023-06-26T02:26:38;10.10;;;9.00;;
29712;SDS011;16623;53.632;10.016;2023-06-26T02:29:04;12.82;;;10.30;;
29712;SDS011;16623;53.632;10.016;2023-06-26T02:31:29;11.27;;;9.73;;
29712;SDS011;16623;53.632;10.016;2023-06-26T02:33:55;11.90;;;9.40;;
29712;SDS011;16623;53.632;10.016;2023-06-26T02:36:20;10.45;;;9.45;;
29712;SDS011;16623;53.632;10.016;2023-06-26T02:38:46;11.88;;;10.20;;
29712;SDS011;16623;53.632;10.016;2023-06-26T02:41:11;10.85;;;9.82;;
29712;SDS011;16623;53.632;10.016;2023-06-26T02:43:37;11.48;;;10.27;;
29712;SDS011;16623;53.632;10.016;2023-06-26T02:46:03;11.02;;;9.30;;
29712;SDS011;16623;53.632;10.016;2023-06-26T02:48:28;10.52;;;9.43;;
29712;SDS011;16623;53.632;10.016;2023-06-26T02:50:54;14.23;;;10.30;;
29712;SDS011;16623;53.632;10.016;2023-06-26T02:53:19;13.63;;;9.63;;
29712;SDS011;16623;53.632;10.016;2023-06-26T02:55:44;13.60;;;10.13;;
29712;SDS011;16623;53.632;10.016;2023-06-26T02:58:12;12.30;;;10.27;;
29712;SDS011;16623;53.632;10.016;2023-06-26T03:00:38;13.35;;;9.70;;
29712;SDS011;16623;53.632;10.016;2023-06-26T03:03:09;12.52;;;9.55;;
29712;SDS011;16623;53.632;10.016;2023-06-26T03:05:35;11.52;;;10.23;;
29712;SDS011;16623;53.632;10.016;2023-06-26T03:08:01;10.82;;;9.77;;
29712;SDS011;16623;53.632;10.016;2023-06-26T03:10:27;11.98;;;9.38;;
29712;SDS011;16623;53.632;10.016;2023-06-26T03:12:53;15.00;;;10.25;;
29712;SDS011;16623;53.632;10.016;2023-06-26T03:15:18;11.32;;;10.02;;
29712;SDS011;16623;53.632;10.016;2023-06-26T03:17:44;12.55;;;10.07;;
29712;SDS011;16623;53.632;10.016;2023-06-26T03:20:10;11.40;;;9.82;;
29712;SDS011;16623;53.632;10.016;2023-06-26T03:22:35;12.52;;;9.68;;
29712;SDS011;16623;53.632;10.016;2023-06-26T03:25:02;10.73;;;9.73;;
29712;SDS011;16623;53.632;10.016;2023-06-26T03:27:28;12.70;;;9.55;;
29712;SDS011;16623;53.632;10.016;2023-06-26T03:29:54;12.30;;;9.30;;
29712;SDS011;16623;53.632;10.016;2023-06-26T03:32:20;13.45;;;9.18;;
29712;SDS011;16623;53.632;10.016;2023-06-26T03:34:45;11.20;;;8.82;;
29712;SDS011;16623;53.632;10.016;2023-06-26T03:37:11;11.35;;;8.90;;
29712;SDS011;16623;53.632;10.016;2023-06-26T03:39:36;9.35;;;8.35;;
29712;SDS011;16623;53.632;10.016;2023-06-26T03:42:02;10.60;;;8.75;;
29712;SDS011;16623;53.632;10.016;2023-06-26T03:44:31;8.85;;;7.93;;
29712;SDS011;16623;53.632;10.016;2023-06-26T03:47:06;13.25;;;8.80;;
29712;SDS011;16623;53.632;10.016;2023-06-26T03:49:31;15.30;;;8.40;;
29712;SDS011;16623;53.632;10.016;2023-06-26T03:51:57;14.00;;;8.65;;
29712;SDS011;16623;53.632;10.016;2023-06-26T03:54:22;9.63;;;8.00;;
29712;SDS011;16623;53.632;10.016;2023-06-26T03:56:48;8.57;;;7.68;;
29712;SDS011;16623;53.632;10.016;2023-06-26T03:59:14;10.27;;;7.68;;
29712;SDS011;16623;53.632;10.016;2023-06-26T04:01:40;9.55;;;8.40;;
29712;SDS011;16623;53.632;10.016;2023-06-26T04:04:05;8.95;;;7.88;;
29712;SDS011;16623;53.632;10.016;2023-06-26T04:06:31;11.52;;;7.45;;
29712;SDS011;16623;53.632;10.016;2023-06-26T04:08:57;9.25;;;7.63;;
29712;SDS011;16623;53.632;10.016;2023-06-26T04:11:22;13.68;;;7.65;;
29712;SDS011;16623;53.632;10.016;2023-06-26T04:13:49;9.93;;;8.07;;
29712;SDS011;16623;53.632;10.016;2023-06-26T04:16:14;9.45;;;7.40;;
29712;SDS011;16623;53.632;10.016;2023-06-26T04:18:40;8.82;;;7.65;;
29712;SDS011;16623;53.632;10.016;2023-06-26T04:23:33;8.93;;;7.90;;
29712;SDS011;16623;53.632;10.016;2023-06-26T04:25:59;8.25;;;7.32;;
29712;SDS011;16623;53.632;10.016;2023-06-26T04:28:24;8.50;;;7.50;;
29712;SDS011;16623;53.632;10.016;2023-06-26T04:30:50;10.27;;;7.93;;
29712;SDS011;16623;53.632;10.016;2023-06-26T04:33:15;12.02;;;7.80;;
29712;SDS011;16623;53.632;10.016;2023-06-26T04:35:41;8.32;;;7.07;;
29712;SDS011;16623;53.632;10.016;2023-06-26T04:38:09;10.40;;;8.07;;
29712;SDS011;16623;53.632;10.016;2023-06-26T04:40:35;7.40;;;6.60;;
29712;SDS011;16623;53.632;10.016;2023-06-26T04:43:01;9.10;;;6.93;;
29712;SDS011;16623;53.632;10.016;2023-06-26T04:45:26;11.27;;;7.35;;
29712;SDS011;16623;53.632;10.016;2023-06-26T04:47:52;10.05;;;7.18;;
29712;SDS011;16623;53.632;10.016;2023-06-26T04:50:17;7.95;;;7.10;;
29712;SDS011;16623;53.632;10.016;2023-06-26T04:52:43;14.70;;;7.25;;
29712;SDS011;16623;53.632;10.016;2023-06-26T04:55:09;11.10;;;6.55;;
29712;SDS011;16623;53.632;10.016;2023-06-26T04:57:34;8.80;;;6.38;;
29712;SDS011;16623;53.632;10.016;2023-06-26T05:00:00;10.50;;;6.65;;
29712;SDS011;16623;53.632;10.016;2023-06-26T05:02:26;8.10;;;6.90;;
29712;SDS011;16623;53.632;10.016;2023-06-26T05:04:51;8.93;;;6.85;;
29712;SDS011;16623;53.632;10.016;2023-06-26T05:07:17;7.60;;;6.65;;
29712;SDS011;16623;53.632;10.016;2023-06-26T05:09:42;7.30;;;6.55;;
29712;SDS011;16623;53.632;10.016;2023-06-26T05:12:08;7.65;;;6.80;;
29712;SDS011;16623;53.632;10.016;2023-06-26T05:14:34;11.32;;;7.13;;
29712;SDS011;16623;53.632;10.016;2023-06-26T05:16:59;12.02;;;7.07;;
29712;SDS011;16623;53.632;10.016;2023-06-26T05:19:25;11.77;;;8.32;;
29712;SDS011;16623;53.632;10.016;2023-06-26T05:21:50;8.93;;;6.88;;
29712;SDS011;16623;53.632;10.016;2023-06-26T05:24:17;9.60;;;7.45;;
29712;SDS011;16623;53.632;10.016;2023-06-26T05:26:44;8.52;;;7.22;;
29712;SDS011;16623;53.632;10.016;2023-06-26T05:29:10;8.73;;;6.82;;
29712;SDS011;16623;53.632;10.016;2023-06-26T05:31:36;9.35;;;6.82;;
29712;SDS011;16623;53.632;10.016;2023-06-26T05:34:06;9.77;;;6.95;;
29712;SDS011;16623;53.632;10.016;2023-06-26T05:36:33;8.23;;;7.40;;
29712;SDS011;16623;53.632;10.016;2023-06-26T05:39:00;10.20;;;7.65;;
29712;SDS011;16623;53.632;10.016;2023-06-26T05:41:26;8.45;;;7.50;;
29712;SDS011;16623;53.632;10.016;2023-06-26T05:43:52;9.15;;;7.20;;
29712;SDS011;16623;53.632;10.016;2023-06-26T05:46:19;11.05;;;7.18;;
29712;SDS011;16623;53.632;10.016;2023-06-26T05:48:44;7.35;;;6.55;;
29712;SDS011;16623;53.632;10.016;2023-06-26T05:51:10;10.18;;;6.97;;
29712;SDS011;16623;53.632;10.016;2023-06-26T05:53:36;8.35;;;7.07;;
29712;SDS011;16623;53.632;10.016;2023-06-26T05:56:02;7.22;;;6.30;;
29712;SDS011;16623;53.632;10.016;2023-06-26T05:58:28;9.10;;;7.10;;
29712;SDS011;16623;53.632;10.016;2023-06-26T06:00:53;12.57;;;6.93;;
29712;SDS011;16623;53.632;10.016;2023-06-26T06:03:19;9.90;;;6.90;;
29712;SDS011;16623;53.632;10.016;2023-06-26T06:05:44;9.15;;;6.72;;
29712;SDS011;16623;53.632;10.016;2023-06-26T06:08:10;11.18;;;7.13;;
29712;SDS011;16623;53.632;10.016;2023-06-26T06:10:35;9.82;;;6.32;;
29712;SDS011;16623;53.632;10.016;2023-06-26T06:13:01;15.38;;;7.50;;
29712;SDS011;16623;53.632;10.016;2023-06-26T06:15:27;11.18;;;6.85;;
29712;SDS011;16623;53.632;10.016;2023-06-26T06:17:52;11.18;;;7.03;;
29712;SDS011;16623;53.632;10.016;2023-06-26T06:20:18;10.98;;;7.03;;
29712;SDS011;16623;53.632;10.016;2023-06-26T06:22:45;15.60;;;7.28;;
29712;SDS011;16623;53.632;10.016;2023-06-26T06:25:13;14.95;;;7.45;;
29712;SDS011;16623;53.632;10.016;2023-06-26T06:27:40;14.85;;;6.97;;
29712;SDS011;16623;53.632;10.016;2023-06-26T06:30:06;11.80;;;6.63;;
29712;SDS011;16623;53.632;10.016;2023-06-26T06:32:33;8.73;;;7.20;;
29712;SDS011;16623;53.632;10.016;2023-06-26T06:34:58;7.72;;;6.07;;
29712;SDS011;16623;53.632;10.016;2023-06-26T06:37:24;10.25;;;6.50;;
29712;SDS011;16623;53.632;10.016;2023-06-26T06:39:50;10.38;;;6.25;;
29712;SDS011;16623;53.632;10.016;2023-06-26T06:42:16;7.55;;;6.50;;
29712;SDS011;16623;53.632;10.016;2023-06-26T06:44:41;9.70;;;6.50;;
29712;SDS011;16623;53.632;10.016;2023-06-26T06:47:07;10.88;;;6.50;;
29712;SDS011;16623;53.632;10.016;2023-06-26T06:49:32;9.40;;;6.68;;
29712;SDS011;16623;53.632;10.016;2023-06-26T06:51:58;9.57;;;6.15;;
29712;SDS011;16623;53.632;10.016;2023-06-26T06:54:25;11.60;;;6.40;;
29712;SDS011;16623;53.632;10.016;2023-06-26T06:56:52;13.10;;;7.15;;
29712;SDS011;16623;53.632;10.016;2023-06-26T06:59:18;8.45;;;6.63;;
29712;SDS011;16623;53.632;10.016;2023-06-26T07:01:43;9.25;;;6.63;;
29712;SDS011;16623;53.632;10.016;2023-06-26T07:04:09;7.78;;;6.35;;
29712;SDS011;16623;53.632;10.016;2023-06-26T07:06:34;7.72;;;5.80;;
29712;SDS011;16623;53.632;10.016;2023-06-26T07:09:00;9.00;;;6.57;;
29712;SDS011;16623;53.632;10.016;2023-06-26T07:11:25;12.25;;;6.28;;
29712;SDS011;16623;53.632;10.016;2023-06-26T07:13:51;8.02;;;6.38;;
29712;SDS011;16623;53.632;10.016;2023-06-26T07:16:16;7.80;;;6.68;;
29712;SDS011;16623;53.632;10.016;2023-06-26T07:18:43;8.65;;;6.10;;
29712;SDS011;16623;53.632;10.016;2023-06-26T07:21:09;8.77;;;6.50;;
29712;SDS011;16623;53.632;10.016;2023-06-26T07:23:34;13.98;;;8.88;;
29712;SDS011;16623;53.632;10.016;2023-06-26T07:26:00;7.90;;;6.35;;
29712;SDS011;16623;53.632;10.016;2023-06-26T07:28:25;7.95;;;6.35;;
29712;SDS011;16623;53.632;10.016;2023-06-26T07:30:51;11.38;;;7.00;;
29712;SDS011;16623;53.632;10.016;2023-06-26T07:33:16;12.57;;;6.72;;
29712;SDS011;16623;53.632;10.016;2023-06-26T07:35:42;10.73;;;6.68;;
29712;SDS011;16623;53.632;10.016;2023-06-26T07:38:07;7.28;;;5.85;;
29712;SDS011;16623;53.632;10.016;2023-06-26T07:40:33;7.32;;;6.00;;
29712;SDS011;16623;53.632;10.016;2023-06-26T07:42:58;8.98;;;6.28;;
29712;SDS011;16623;53.632;10.016;2023-06-26T07:45:24;10.45;;;6.18;;
29712;SDS011;16623;53.632;10.016;2023-06-26T07:47:49;9.98;;;6.97;;
29712;SDS011;16623;53.632;10.016;2023-06-26T07:50:15;8.00;;;6.85;;
29712;SDS011;16623;53.632;10.016;2023-06-26T07:52:46;9.90;;;6.55;;
29712;SDS011;16623;53.632;10.016;2023-06-26T07:55:12;8.43;;;6.38;;
29712;SDS011;16623;53.632;10.016;2023-06-26T07:57:37;10.30;;;6.15;;
29712;SDS011;16623;53.632;10.016;2023-06-26T08:00:04;17.77;;;8.15;;
29712;SDS011;16623;53.632;10.016;2023-06-26T08:02:31;10.05;;;6.95;;
29712;SDS011;16623;53.632;10.016;2023-06-26T08:04:57;10.57;;;6.70;;
29712;SDS011;16623;53.632;10.016;2023-06-26T08:07:22;10.65;;;6.80;;
29712;SDS011;16623;53.632;10.016;2023-06-26T08:09:48;9.27;;;6.78;;
29712;SDS011;16623;53.632;10.016;2023-06-26T08:12:13;10.50;;;6.70;;
29712;SDS011;16623;53.632;10.016;2023-06-26T08:14:39;9.90;;;6.80;;
29712;SDS011;16623;53.632;10.016;2023-06-26T08:17:05;8.13;;;6.40;;
29712;SDS011;16623;53.632;10.016;2023-06-26T08:19:30;12.02;;;6.43;;
29712;SDS011;16623;53.632;10.016;2023-06-26T08:21:56;7.57;;;6.07;;
29712;SDS011;16623;53.632;10.016;2023-06-26T08:24:21;10.18;;;6.80;;
29712;SDS011;16623;53.632;10.016;2023-06-26T08:26:47;8.25;;;6.15;;
29712;SDS011;16623;53.632;10.016;2023-06-26T08:29:14;11.07;;;7.78;;
29712;SDS011;16623;53.632;10.016;2023-06-26T08:31:40;9.70;;;6.28;;
29712;SDS011;16623;53.632;10.016;2023-06-26T08:34:07;11.90;;;6.82;;
29712;SDS011;16623;53.632;10.016;2023-06-26T08:36:33;14.15;;;6.82;;
29712;SDS011;16623;53.632;10.016;2023-06-26T08:38:58;9.55;;;7.00;;
29712;SDS011;16623;53.632;10.016;2023-06-26T08:41:24;7.53;;;6.40;;
29712;SDS011;16623;53.632;10.016;2023-06-26T08:43:50;8.57;;;6.32;;
29712;SDS011;16623;53.632;10.016;2023-06-26T08:46:17;8.68;;;6.70;;
29712;SDS011;16623;53.632;10.016;2023-06-26T08:48:45;8.68;;;6.70;;
29712;SDS011;16623;53.632;10.016;2023-06-26T08:51:16;11.82;;;6.65;;
29712;SDS011;16623;53.632;10.016;2023-06-26T08:53:44;12.70;;;7.35;;
29712;SDS011;16623;53.632;10.016;2023-06-26T08:56:21;10.75;;;6.95;;
29712;SDS011;16623;53.632;10.016;2023-06-26T08:58:47;9.77;;;7.15;;
29712;SDS011;16623;53.632;10.016;2023-06-26T09:01:14;13.32;;;6.65;;
29712;SDS011;16623;53.632;10.016;2023-06-26T09:03:40;7.60;;;5.75;;
29712;SDS011;16623;53.632;10.016;2023-06-26T09:06:08;8.52;;;6.57;;
29712;SDS011;16623;53.632;10.016;2023-06-26T09:08:34;8.52;;;7.40;;
29712;SDS011;16623;53.632;10.016;2023-06-26T09:11:00;9.65;;;6.68;;
29712;SDS011;16623;53.632;10.016;2023-06-26T09:13:28;10.45;;;7.28;;
29712;SDS011;16623;53.632;10.016;2023-06-26T09:15:55;8.98;;;7.47;;
29712;SDS011;16623;53.632;10.016;2023-06-26T09:18:20;9.50;;;7.20;;
29712;SDS011;16623;53.632;10.016;2023-06-26T09:20:46;10.55;;;7.82;;
29712;SDS011;16623;53.632;10.016;2023-06-26T09:23:13;10.32;;;8.43;;
29712;SDS011;16623;53.632;10.016;2023-06-26T09:25:39;13.57;;;8.48;;
29712;SDS011;16623;53.632;10.016;2023-06-26T09:28:05;15.52;;;9.73;;
29712;SDS011;16623;53.632;10.016;2023-06-26T09:30:34;12.02;;;8.57;;
29712;SDS011;16623;53.632;10.016;2023-06-26T09:33:16;16.25;;;9.48;;
29712;SDS011;16623;53.632;10.016;2023-06-26T09:35:43;24.23;;;9.35;;
29712;SDS011;16623;53.632;10.016;2023-06-26T09:38:09;15.80;;;8.40;;
29712;SDS011;16623;53.632;10.016;2023-06-26T09:40:36;16.02;;;8.85;;
29712;SDS011;16623;53.632;10.016;2023-06-26T09:43:06;13.68;;;9.00;;
29712;SDS011;16623;53.632;10.016;2023-06-26T09:45:33;19.40;;;9.45;;
29712;SDS011;16623;53.632;10.016;2023-06-26T09:48:00;12.98;;;7.88;;
29712;SDS011;16623;53.632;10.016;2023-06-26T09:50:27;15.63;;;8.98;;
29712;SDS011;16623;53.632;10.016;2023-06-26T09:52:53;17.55;;;8.57;;
29712;SDS011;16623;53.632;10.016;2023-06-26T09:55:19;17.42;;;9.10;;
29712;SDS011;16623;53.632;10.016;2023-06-26T09:57:46;19.88;;;10.35;;
29712;SDS011;16623;53.632;10.016;2023-06-26T10:00:14;21.33;;;9.15;;
29712;SDS011;16623;53.632;10.016;2023-06-26T10:02:41;21.02;;;9.18;;
29712;SDS011;16623;53.632;10.016;2023-06-26T10:05:06;16.05;;;9.15;;
29712;SDS011;16623;53.632;10.016;2023-06-26T10:07:32;15.27;;;9.55;;
29712;SDS011;16623;53.632;10.016;2023-06-26T10:09:58;15.95;;;9.68;;
29712;SDS011;16623;53.632;10.016;2023-06-26T10:12:29;10.75;;;9.00;;
29712;SDS011;16623;53.632;10.016;2023-06-26T10:14:56;14.38;;;9.25;;
29712;SDS011;16623;53.632;10.016;2023-06-26T10:17:23;16.42;;;10.68;;
29712;SDS011;16623;53.632;10.016;2023-06-26T10:19:52;17.38;;;10.60;;
29712;SDS011;16623;53.632;10.016;2023-06-26T10:22:21;19.13;;;10.48;;
29712;SDS011;16623;53.632;10.016;2023-06-26T10:24:50;14.80;;;9.48;;
29712;SDS011;16623;53.632;10.016;2023-06-26T10:27:18;15.20;;;10.65;;
29712;SDS011;16623;53.632;10.016;2023-06-26T10:29:46;17.23;;;11.77;;
29712;SDS011;16623;53.632;10.016;2023-06-26T10:32:18;16.65;;;11.70;;
29712;SDS011;16623;53.632;10.016;2023-06-26T10:34:46;18.42;;;10.95;;
29712;SDS011;16623;53.632;10.016;2023-06-26T10:37:12;16.15;;;9.57;;
29712;SDS011;16623;53.632;10.016;2023-06-26T10:39:45;14.68;;;8.60;;
29712;SDS011;16623;53.632;10.016;2023-06-26T10:42:18;19.10;;;9.23;;
29712;SDS011;16623;53.632;10.016;2023-06-26T10:44:45;11.75;;;7.78;;
29712;SDS011;16623;53.632;10.016;2023-06-26T10:47:12;11.50;;;7.43;;
29712;SDS011;16623;53.632;10.016;2023-06-26T10:50:00;14.25;;;7.43;;
29712;SDS011;16623;53.632;10.016;2023-06-26T10:52:44;10.60;;;8.32;;
29712;SDS011;16623;53.632;10.016;2023-06-26T10:55:09;17.58;;;8.32;;
29712;SDS011;16623;53.632;10.016;2023-06-26T10:57:35;13.20;;;8.00;;
29712;SDS011;16623;53.632;10.016;2023-06-26T11:00:08;15.38;;;9.35;;
29712;SDS011;16623;53.632;10.016;2023-06-26T11:02:48;13.82;;;7.80;;
29712;SDS011;16623;53.632;10.016;2023-06-26T11:05:27;12.52;;;7.43;;
29712;SDS011;16623;53.632;10.016;2023-06-26T11:08:07;14.05;;;7.93;;
29712;SDS011;16623;53.632;10.016;2023-06-26T11:10:47;13.48;;;8.70;;
29712;SDS011;16623;53.632;10.016;2023-06-26T11:13:16;15.88;;;9.27;;
29712;SDS011;16623;53.632;10.016;2023-06-26T11:15:43;15.30;;;7.75;;
29712;SDS011;16623;53.632;10.016;2023-06-26T11:18:12;11.43;;;7.82;;
29712;SDS011;16623;53.632;10.016;2023-06-26T11:20:38;18.50;;;8.15;;
29712;SDS011;16623;53.632;10.016;2023-06-26T11:23:04;18.92;;;8.05;;
29712;SDS011;16623;53.632;10.016;2023-06-26T11:25:36;12.68;;;5.97;;
29712;SDS011;16623;53.632;10.016;2023-06-26T11:28:03;15.27;;;6.10;;
29712;SDS011;16623;53.632;10.016;2023-06-26T11:30:29;11.52;;;5.82;;
29712;SDS011;16623;53.632;10.016;2023-06-26T11:33:08;15.35;;;6.28;;
29712;SDS011;16623;53.632;10.016;2023-06-26T11:35:34;14.13;;;5.43;;
29712;SDS011;16623;53.632;10.016;2023-06-26T11:38:00;14.30;;;5.70;;
29712;SDS011;16623;53.632;10.016;2023-06-26T11:40:32;15.85;;;6.03;;
29712;SDS011;16623;53.632;10.016;2023-06-26T11:42:58;12.73;;;5.30;;
29712;SDS011;16623;53.632;10.016;2023-06-26T11:45:27;11.48;;;4.90;;
29712;SDS011;16623;53.632;10.016;2023-06-26T11:47:57;14.38;;;3.95;;
29712;SDS011;16623;53.632;10.016;2023-06-26T11:50:23;13.00;;;4.25;;
29712;SDS011;16623;53.632;10.016;2023-06-26T11:52:52;9.65;;;3.80;;
29712;SDS011;16623;53.632;10.016;2023-06-26T11:55:19;14.60;;;4.05;;
29712;SDS011;16623;53.632;10.016;2023-06-26T11:57:48;13.95;;;3.15;;
29712;SDS011;16623;53.632;10.016;2023-06-26T12:00:18;8.85;;;3.55;;
29712;SDS011;16623;53.632;10.016;2023-06-26T12:02:45;13.95;;;3.10;;
29712;SDS011;16623;53.632;10.016;2023-06-26T12:05:11;9.45;;;2.35;;
29712;SDS011;16623;53.632;10.016;2023-06-26T12:07:39;15.35;;;2.92;;
29712;SDS011;16623;53.632;10.016;2023-06-26T12:10:05;13.90;;;3.03;;
29712;SDS011;16623;53.632;10.016;2023-06-26T12:12:31;11.82;;;2.92;;
29712;SDS011;16623;53.632;10.016;2023-06-26T12:14:58;13.93;;;2.42;;
29712;SDS011;16623;53.632;10.016;2023-06-26T12:17:25;10.93;;;3.53;;
29712;SDS011;16623;53.632;10.016;2023-06-26T12:19:50;11.35;;;3.38;;
29712;SDS011;16623;53.632;10.016;2023-06-26T12:22:17;11.18;;;3.00;;
29712;SDS011;16623;53.632;10.016;2023-06-26T12:24:44;15.18;;;3.08;;
29712;SDS011;16623;53.632;10.016;2023-06-26T12:27:11;15.73;;;3.08;;
29712;SDS011;16623;53.632;10.016;2023-06-26T12:29:38;8.02;;;2.58;;
29712;SDS011;16623;53.632;10.016;2023-06-26T12:32:09;11.95;;;3.33;;
29712;SDS011;16623;53.632;10.016;2023-06-26T12:34:36;12.98;;;2.85;;
29712;SDS011;16623;53.632;10.016;2023-06-26T12:37:04;15.75;;;3.15;;
29712;SDS011;16623;53.632;10.016;2023-06-26T12:39:30;17.13;;;3.00;;
29712;SDS011;16623;53.632;10.016;2023-06-26T12:42:13;13.25;;;2.83;;
29712;SDS011;16623;53.632;10.016;2023-06-26T12:44:40;10.70;;;3.33;;
29712;SDS011;16623;53.632;10.016;2023-06-26T12:47:06;9.15;;;2.80;;
29712;SDS011;16623;53.632;10.016;2023-06-26T12:49:36;11.10;;;2.22;;
29712;SDS011;16623;53.632;10.016;2023-06-26T12:52:06;6.43;;;2.72;;
29712;SDS011;16623;53.632;10.016;2023-06-26T12:54:33;11.48;;;2.28;;
29712;SDS011;16623;53.632;10.016;2023-06-26T12:56:59;8.88;;;2.65;;
29712;SDS011;16623;53.632;10.016;2023-06-26T12:59:25;12.98;;;2.47;;
29712;SDS011;16623;53.632;10.016;2023-06-26T13:01:51;13.52;;;2.80;;
29712;SDS011;16623;53.632;10.016;2023-06-26T13:04:16;9.48;;;2.53;;
29712;SDS011;16623;53.632;10.016;2023-06-26T13:06:42;9.88;;;2.42;;
29712;SDS011;16623;53.632;10.016;2023-06-26T13:09:08;4.75;;;2.20;;
29712;SDS011;16623;53.632;10.016;2023-06-26T13:11:33;8.88;;;2.40;;
29712;SDS011;16623;53.632;10.016;2023-06-26T13:14:00;9.00;;;3.28;;
29712;SDS011;16623;53.632;10.016;2023-06-26T13:16:26;7.70;;;2.50;;
29712;SDS011;16623;53.632;10.016;2023-06-26T13:18:52;7.50;;;1.98;;
29712;SDS011;16623;53.632;10.016;2023-06-26T13:21:17;9.35;;;2.67;;
29712;SDS011;16623;53.632;10.016;2023-06-26T13:23:44;10.60;;;2.35;;
29712;SDS011;16623;53.632;10.016;2023-06-26T13:26:10;7.22;;;2.10;;
29712;SDS011;16623;53.632;10.016;2023-06-26T13:28:36;10.18;;;2.35;;
29712;SDS011;16623;53.632;10.016;2023-06-26T13:31:03;6.22;;;2.20;;
29712;SDS011;16623;53.632;10.016;2023-06-26T13:33:28;9.32;;;2.30;;
29712;SDS011;16623;53.632;10.016;2023-06-26T13:35:54;10.45;;;2.22;;
29712;SDS011;16623;53.632;10.016;2023-06-26T13:38:20;9.40;;;2.15;;
29712;SDS011;16623;53.632;10.016;2023-06-26T13:40:53;8.30;;;2.25;;
29712;SDS011;16623;53.632;10.016;2023-06-26T13:43:20;13.23;;;2.50;;
29712;SDS011;16623;53.632;10.016;2023-06-26T13:45:47;7.18;;;2.08;;
29712;SDS011;16623;53.632;10.016;2023-06-26T13:48:13;8.48;;;2.20;;
29712;SDS011;16623;53.632;10.016;2023-06-26T13:50:38;7.93;;;2.15;;
29712;SDS011;16623;53.632;10.016;2023-06-26T13:53:04;3.20;;;1.50;;
29712;SDS011;16623;53.632;10.016;2023-06-26T13:55:29;11.60;;;3.03;;
29712;SDS011;16623;53.632;10.016;2023-06-26T13:57:56;9.20;;;2.00;;
29712;SDS011;16623;53.632;10.016;2023-06-26T14:00:21;5.07;;;1.95;;
29712;SDS011;16623;53.632;10.016;2023-06-26T14:02:47;3.75;;;2.17;;
29712;SDS011;16623;53.632;10.016;2023-06-26T14:05:13;4.53;;;1.73;;
29712;SDS011;16623;53.632;10.016;2023-06-26T14:07:39;5.30;;;1.50;;
29712;SDS011;16623;53.632;10.016;2023-06-26T14:10:05;7.57;;;1.85;;
29712;SDS011;16623;53.632;10.016;2023-06-26T14:12:31;9.60;;;2.00;;
29712;SDS011;16623;53.632;10.016;2023-06-26T14:14:57;14.27;;;2.17;;
29712;SDS011;16623;53.632;10.016;2023-06-26T14:17:22;5.25;;;1.75;;
29712;SDS011;16623;53.632;10.016;2023-06-26T14:19:51;5.47;;;1.75;;
29712;SDS011;16623;53.632;10.016;2023-06-26T14:22:17;8.23;;;1.85;;
29712;SDS011;16623;53.632;10.016;2023-06-26T14:24:43;10.20;;;2.38;;
29712;SDS011;16623;53.632;10.016;2023-06-26T14:27:08;9.85;;;2.40;;
29712;SDS011;16623;53.632;10.016;2023-06-26T14:29:35;2.97;;;1.70;;
29712;SDS011;16623;53.632;10.016;2023-06-26T14:32:01;7.78;;;2.00;;
29712;SDS011;16623;53.632;10.016;2023-06-26T14:34:27;10.20;;;2.38;;
29712;SDS011;16623;53.632;10.016;2023-06-26T14:36:52;2.45;;;1.20;;